Terminal Aerodrome Forecast
Issued by NWS

Home | Current Version | Previous Version | Graphics & Text | Print | Product List | Glossary On
Versions: 1 2 3 4 5 6 7 8 9 10 11 12 13 14 15 16 17 18 19 20 21 22 23 24 25
000
FTUS43 KABR 250700 AAA
TAFMBG
TAF AMD
KMBG 250715Z 2507/2606 VRB03KT P6SM OVC025
     FM250900 VRB05KT P6SM BKN035
     FM251400 15007KT P6SM OVC020
      TEMPO 2518/2521 2SM -SN BR
     FM252100 19008KT 2SM -SN BR OVC020
     FM260300 34024G34KT 3SM BLSN OVC025=

USA.gov is the U.S. government's official web portal to all federal, state and local government web resources and services.